This is the latest recevied weather packets stored in our database for station/object WK7G. If no packets are shown the sender has not sent any weather packets the latest 1 day(s).
| Time | Temp. | Humidity | Pressure | Rain* | Wind** | Luminosity | Snow |
|---|---|---|---|---|---|---|---|
| 1778029819 | 9.44° C | 41% | 1004.2 hPa | 0 mm | 4.02 m/s, 346° | 56 W/m² | - |
| 1778029519 | 9.44° C | 41% | 1004.2 hPa | 0 mm | 2.68 m/s, 348° | 95 W/m² | - |
| 1778029215 | 9.44° C | 40% | 1004.3 hPa | 0 mm | 3.58 m/s, 334° | 151 W/m² | - |
| 1778028912 | 9.44° C | 41% | 1003.8 hPa | 0 mm | 4.02 m/s, 20° | 163 W/m² | - |
| 1778028608 | 10° C | 40% | 1003.6 hPa | 0 mm | 6.71 m/s, 10° | 164 W/m² | - |
| 1778028306 | 10° C | 39% | 1003.8 hPa | 0 mm | 1.79 m/s, 50° | 199 W/m² | - |
| 1778028002 | 10° C | 41% | 1003.7 hPa | 0 mm | 1.79 m/s, 341° | 96 W/m² | - |
| 1778027698 | 10.56° C | 39% | 1003.9 hPa | 0 mm | 4.92 m/s, 49° | 238 W/m² | - |
| 1778027394 | 10.56° C | 38% | 1003.8 hPa | 0 mm | 5.81 m/s, 322° | 86 W/m² | - |
| 1778027090 | 11.11° C | 37% | 1003.7 hPa | 0 mm | 4.92 m/s, 285° | 340 W/m² | - |
| 1778026786 | 10.56° C | 38% | 1003.4 hPa | 0 mm | 4.92 m/s, 349° | 111 W/m² | - |
| 1778026483 | 11.67° C | 37% | 1003.4 hPa | 0 mm | 2.68 m/s, 334° | 373 W/m² | - |
| 1778026180 | 11.11° C | 34% | 1003.6 hPa | 0 mm | 4.47 m/s, 288° | 363 W/m² | - |
| 1778025878 | 10.56° C | 34% | 1003.4 hPa | 0 mm | 3.13 m/s, 354° | 415 W/m² | - |
| 1778025575 | 11.11° C | 36% | 1003.3 hPa | 0 mm | 1.34 m/s, 313° | 278 W/m² | - |
| 1778025273 | 11.67° C | 32% | 1003.8 hPa | 0 mm | 4.02 m/s, 342° | 440 W/m² | - |
| 1778024969 | 11.67° C | 32% | 1003.6 hPa | 0 mm | 4.02 m/s, 318° | 446 W/m² | - |
| 1778024667 | 11.67° C | 34% | 1004 hPa | 0 mm | 3.58 m/s, 42° | 459 W/m² | - |
| 1778024363 | 11.67° C | 32% | 1003.8 hPa | 0 mm | 4.02 m/s, 297° | 450 W/m² | - |
| 1778024061 | 12.22° C | 33% | 1003.9 hPa | 0 mm | 3.58 m/s, 28° | 440 W/m² | - |
| 1778023758 | 11.67° C | 35% | 1003.7 hPa | 0 mm | 4.47 m/s, 108° | 446 W/m² | - |
| 1778023456 | 11.67° C | 33% | 1003.7 hPa | 0 mm | 4.92 m/s, 326° | 482 W/m² | - |
| 1778023153 | 12.22° C | 33% | 1003.6 hPa | 0 mm | 3.58 m/s, 288° | 519 W/m² | - |
| 1778022850 | 12.22° C | 33% | 1003.4 hPa | 0 mm | 3.13 m/s, 292° | 507 W/m² | - |
| 1778022548 | 12.22° C | 36% | 1003.4 hPa | 0 mm | 3.13 m/s, 27° | 523 W/m² | - |
* Rain latest hour (hover to see other rain measurements)
** Current wind speed in m/s (hover to see current wind gust speed)